Barksdale Air Force Base
KBAD : now visible

Airfield :











YOU CAN JOIN US ON...

 
LOGIN :

Register | Disclaimer

   EN    FR    IT 

 









Legend :    VFR   Marginal VFR   IFR   Intensive IFR   Very Intensive IFR
Visi :
Ceiling :
>= 8 km
>= 3000ft
5 to 8 km
1000 to 3000 ft
1500m to 5 km
500 to 1000 ft
800 to 1500m
200 to 500 ft
< 800m
< 200 ft
Symbols :   Thunderstorms  Fog  Heavy snow  Heavy precipitations  Wind > 20 kt







- Airport Elevation : 166 ft


KBAD - Barksdale Air Force Base

CURRENT METAR :
  • 190856Z AUTO 15004KT 10SM CLR 25/25 A2995 RMK AO2 SLP143 T02450245 50001

EXPIRED METARs :
  • 190756Z AUTO 15006KT 10SM CLR 25/25 A2995 RMK AO2 SLP143 T02490249
  • 190656Z AUTO 14006KT 10SM CLR 25/25 A2995 RMK AO2 SLP143 T02530253

TAF TAF KBAD
Valid from the 19 at 02:00 until the 20 at 08:00 UTC


190200Z 1902/2008 18005KT 9999 FEW050 QNH2989INS
BECMG 1913/1914 23010G15KT 9999 BKN015 QNH2997INS
BECMG 1917/1918 18005KT 9999 FEW100 QNH2993INS TX38/1922Z TN22/1912Z
No reported NOTAMs for that airfield.



MET'MAP, your aeronautical weather chart ! - Copyright ORBIFLY December 2007 - Disclaimer

ORBIFLY MET'MAP TEAM :

Programming & Development : Alexandra Zaïnal
Concept & Development : Baudouin d'Aumeries
Co-Development & Prog : Marc-Olivier Méhu
Technical & hardware support : Manuel Goepfert

Contact : metmap@orbifly.com




SOURCES & CREDITS :

   NOAA       Earth
Advisory